New York, New York
Traffic Map
Current Weather Conditions
New York, New York
Clear
Clear
-6°
Feels Like: -10°
Wind Chill: -10° Ceiling: Unl
Heat Index: -6° Visibility: 10mi
Dew Point: -19° Wind: 7mph
Humidity: 34% Direction: ° ()
Pressure: 30.23in Gusts: 0mph
Raw Report DataKNYC 121551Z AUTO VRB06KT 10SM CLR M06/M19 A3023 RMK AO2 SLP231 T10561194 $
Traffic Incident Summary
Active as of:
Severity:
Category:
InformationThere was an issue retrieving the traffic information for this location. Please try a different location or try again shortly.
Advertisements
Track Severe Weather on mobile